Jiujiang, China
Current Conditions -  °F | °C
As of 3:00 PM on Friday 24 Oct 2014 (Local Time) from ZHHH Reporting Station
Clear Clear  
Wind Chill: 81°   Ceiling: Unl
Heat Index: 81°   Visibility: 6mi
Dew Point: 54°   Wind: 4mph
Humidity: 39%   Direction: 210°SSW
Pressure: 29.97"   Gusts: NA
Location:  29.73°N, 115.98°E
Report Text: ZHHH 240700Z 21002MPS 120V270 CAVOK 27/12 Q1015 NOSIG
Loading
Personal Weather Stations






























Interactive Weather Map
Tropical Storm Tracking
New forecast layout! Learn more

10-Day Weather Forecast

Advertisements
Track Severe Weather on mobile